Time;durP1;ratioP1;P1;durP2;ratioP2;P2;SDS_P1;SDS_P2;PMS_P1;PMS_P2;Temp;Humidity;BMP_temperature;BMP_pressure;BME280_temperature;BME280_humidity;BME280_pressure;Samples;Min_cycle;Max_cycle;Signal;HPM_P1;HPM_P2
2021/05/01 00:01:09;;;;;;;13.40;9.90;;;;;;;;;;5101204;28;20027;-69
2021/05/01 00:03:35;;;;;;;13.30;9.65;;;;;;;;;;5103761;28;20039;-71
2021/05/01 00:06:01;;;;;;;12.25;9.27;;;;;;;;;;5101077;28;20031;-70
2021/05/01 00:08:28;;;;;;;13.25;8.93;;;;;;;;;;5104029;28;20035;-70
2021/05/01 00:11:01;;;;;;;13.23;8.85;;;;;;;;;;5102195;28;20511;-70
2021/05/01 00:13:27;;;;;;;9.25;8.30;;;;;;;;;;5102868;28;20054;-69
2021/05/01 00:15:53;;;;;;;11.88;8.50;;;;;;;;;;5099707;28;20024;-70
2021/05/01 00:18:19;;;;;;;13.30;8.98;;;;;;;;;;5101705;28;20142;-70
2021/05/01 00:20:46;;;;;;;9.65;8.65;;;;;;;;;;5102130;28;20093;-70
2021/05/01 00:23:12;;;;;;;11.23;9.32;;;;;;;;;;5103216;28;20474;-70
2021/05/01 00:25:38;;;;;;;14.52;9.20;;;;;;;;;;5103011;28;20102;-70
2021/05/01 00:28:04;;;;;;;12.15;9.38;;;;;;;;;;5101063;28;20603;-70
2021/05/01 00:30:30;;;;;;;11.88;9.88;;;;;;;;;;5103898;28;20028;-68
2021/05/01 00:32:57;;;;;;;12.40;9.43;;;;;;;;;;5098084;28;20028;-69
2021/05/01 00:35:23;;;;;;;12.75;9.52;;;;;;;;;;5102028;28;20024;-70
2021/05/01 00:37:49;;;;;;;16.02;9.35;;;;;;;;;;5103790;28;20671;-71
2021/05/01 00:40:16;;;;;;;14.05;10.15;;;;;;;;;;5101490;28;20034;-71
2021/05/01 00:42:42;;;;;;;13.65;9.13;;;;;;;;;;5098252;28;20024;-71
2021/05/01 00:45:08;;;;;;;14.25;10.15;;;;;;;;;;5100874;28;20470;-67
2021/05/01 00:47:34;;;;;;;12.50;9.90;;;;;;;;;;5100882;28;20023;-69
2021/05/01 00:50:01;;;;;;;14.63;9.50;;;;;;;;;;5102516;28;20152;-69
2021/05/01 00:52:27;;;;;;;12.07;8.95;;;;;;;;;;5095583;28;20049;-69
2021/05/01 00:54:53;;;;;;;14.45;10.20;;;;;;;;;;5092816;28;20024;-70
2021/05/01 00:57:19;;;;;;;12.10;10.35;;;;;;;;;;5109552;28;20059;-70
2021/05/01 00:59:46;;;;;;;13.52;10.43;;;;;;;;;;5112785;28;20490;-71
2021/05/01 01:02:15;;;;;;;15.65;11.25;;;;;;;;;;5078188;28;20099;-70
2021/05/01 01:04:41;;;;;;;14.63;10.40;;;;;;;;;;5092291;28;20030;-69
2021/05/01 01:07:07;;;;;;;11.50;9.63;;;;;;;;;;5107433;28;20019;-70
2021/05/01 01:09:34;;;;;;;14.40;11.60;;;;;;;;;;5112947;28;20486;-70
2021/05/01 01:12:00;;;;;;;12.75;9.75;;;;;;;;;;5099149;28;20038;-71
2021/05/01 01:14:26;;;;;;;13.65;11.05;;;;;;;;;;5092507;28;20028;-71
2021/05/01 01:16:52;;;;;;;16.48;11.07;;;;;;;;;;5104533;28;20036;-70
2021/05/01 01:19:18;;;;;;;16.13;12.02;;;;;;;;;;5113006;28;20024;-69
2021/05/01 01:21:47;;;;;;;20.02;14.55;;;;;;;;;;5102450;28;20486;-70
2021/05/01 01:24:14;;;;;;;21.88;15.25;;;;;;;;;;5092429;28;20032;-71
2021/05/01 01:26:41;;;;;;;19.13;12.23;;;;;;;;;;5092527;28;20080;-67
2021/05/01 01:29:07;;;;;;;17.15;13.52;;;;;;;;;;5092456;28;20059;-70
2021/05/01 01:31:34;;;;;;;15.90;12.38;;;;;;;;;;5094117;28;20051;-68
2021/05/01 01:34:00;;;;;;;17.27;11.32;;;;;;;;;;5106871;28;20032;-68
2021/05/01 01:36:26;;;;;;;15.43;11.40;;;;;;;;;;5101411;28;20032;-69
2021/05/01 01:38:53;;;;;;;16.45;10.85;;;;;;;;;;5092252;28;20021;-69
2021/05/01 01:41:19;;;;;;;13.77;10.98;;;;;;;;;;5102160;28;20024;-69
2021/05/01 01:43:45;;;;;;;14.63;11.23;;;;;;;;;;5112565;28;20016;-69
2021/05/01 01:46:11;;;;;;;16.23;10.77;;;;;;;;;;5104022;28;20497;-70
2021/05/01 01:48:37;;;;;;;16.98;12.55;;;;;;;;;;5092265;28;20059;-70
2021/05/01 01:51:03;;;;;;;12.38;9.55;;;;;;;;;;5092537;28;20023;-69
2021/05/01 01:53:29;;;;;;;14.68;11.13;;;;;;;;;;5091572;28;20108;-70
2021/05/01 01:55:55;;;;;;;16.48;11.15;;;;;;;;;;5097160;28;20028;-69
2021/05/01 01:58:22;;;;;;;14.63;10.63;;;;;;;;;;5112488;28;20016;-70
2021/05/01 02:00:49;;;;;;;13.85;10.35;;;;;;;;;;5108761;28;20016;-68
2021/05/01 02:03:15;;;;;;;15.35;10.98;;;;;;;;;;5112958;28;20050;-70
2021/05/01 02:05:42;;;;;;;16.98;9.73;;;;;;;;;;5109736;28;20153;-69
2021/05/01 02:08:08;;;;;;;13.60;10.50;;;;;;;;;;5091801;28;20028;-69
2021/05/01 02:10:35;;;;;;;18.55;11.27;;;;;;;;;;5093806;28;20035;-70
2021/05/01 02:13:01;;;;;;;16.48;11.55;;;;;;;;;;5094191;28;20169;-69
2021/05/01 02:15:27;;;;;;;15.45;11.13;;;;;;;;;;5113510;28;20035;-68
2021/05/01 02:17:55;;;;;;;13.38;11.00;;;;;;;;;;5096048;28;20055;-70
2021/05/01 02:20:31;;;;;;;17.90;10.10;;;;;;;;;;5095863;28;20099;-69
2021/05/01 02:22:57;;;;;;;14.70;11.15;;;;;;;;;;5095691;28;20081;-70
2021/05/01 02:25:24;;;;;;;14.73;11.15;;;;;;;;;;5095781;28;20028;-70
2021/05/01 02:27:50;;;;;;;17.95;11.35;;;;;;;;;;5096022;28;20035;-70
2021/05/01 02:30:18;;;;;;;15.57;11.63;;;;;;;;;;5095667;28;20140;-71
2021/05/01 02:32:45;;;;;;;16.48;12.20;;;;;;;;;;5095527;28;20030;-69
2021/05/01 02:35:12;;;;;;;15.45;12.00;;;;;;;;;;5111764;28;20128;-70
2021/05/01 02:37:38;;;;;;;16.17;11.63;;;;;;;;;;5095123;28;20495;-69
2021/05/01 02:40:06;;;;;;;18.17;12.43;;;;;;;;;;5112719;28;20479;-69
2021/05/01 02:42:32;;;;;;;17.35;12.48;;;;;;;;;;5115692;28;20381;-70
2021/05/01 02:44:58;;;;;;;15.38;11.48;;;;;;;;;;5099215;28;20024;-70
2021/05/01 02:47:24;;;;;;;15.80;11.25;;;;;;;;;;5095201;28;20059;-70
2021/05/01 02:49:50;;;;;;;17.02;11.07;;;;;;;;;;5078025;28;20028;-70
2021/05/01 02:52:16;;;;;;;15.25;10.50;;;;;;;;;;5094871;28;20119;-69
2021/05/01 02:54:42;;;;;;;18.30;12.23;;;;;;;;;;5079328;28;20031;-68
2021/05/01 02:57:08;;;;;;;18.73;11.85;;;;;;;;;;5094979;28;20431;-69
2021/05/01 02:59:34;;;;;;;17.80;11.05;;;;;;;;;;5108593;28;20032;-69
2021/05/01 03:02:00;;;;;;;15.55;10.85;;;;;;;;;;5115327;28;20020;-69
2021/05/01 03:04:26;;;;;;;16.40;12.68;;;;;;;;;;5102582;28;20032;-70
2021/05/01 03:06:52;;;;;;;14.85;11.77;;;;;;;;;;5095147;28;20059;-70
2021/05/01 03:09:18;;;;;;;17.08;12.43;;;;;;;;;;5105279;28;20231;-70
2021/05/01 03:11:45;;;;;;;14.35;11.50;;;;;;;;;;5115215;28;20027;-70
2021/05/01 03:14:11;;;;;;;19.20;12.20;;;;;;;;;;5104975;28;20047;-70
2021/05/01 03:16:37;;;;;;;15.20;11.80;;;;;;;;;;5094700;28;20369;-70
2021/05/01 03:19:03;;;;;;;18.15;11.68;;;;;;;;;;5102449;28;20111;-70
2021/05/01 03:21:29;;;;;;;18.17;12.52;;;;;;;;;;5115113;28;20447;-69
2021/05/01 03:23:55;;;;;;;16.20;11.95;;;;;;;;;;5108065;28;20024;-70
2021/05/01 03:26:21;;;;;;;16.17;12.07;;;;;;;;;;5094076;28;20021;-69
2021/05/01 03:28:47;;;;;;;16.38;12.07;;;;;;;;;;5095565;28;20035;-70
2021/05/01 03:31:14;;;;;;;17.83;12.50;;;;;;;;;;5094506;28;20387;-70
2021/05/01 03:33:40;;;;;;;18.58;12.35;;;;;;;;;;5097545;28;20023;-69
2021/05/01 03:36:07;;;;;;;21.17;13.90;;;;;;;;;;5107100;28;20024;-70
2021/05/01 03:38:33;;;;;;;16.55;13.00;;;;;;;;;;5095701;28;20023;-71
2021/05/01 03:41:00;;;;;;;17.52;13.05;;;;;;;;;;5094910;28;20169;-70
2021/05/01 03:43:26;;;;;;;19.90;13.35;;;;;;;;;;5094329;28;20165;-70
2021/05/01 03:45:52;;;;;;;22.58;14.68;;;;;;;;;;5096267;28;20496;-71
2021/05/01 03:48:18;;;;;;;18.17;14.20;;;;;;;;;;5114428;28;20495;-70
2021/05/01 03:50:44;;;;;;;17.05;12.70;;;;;;;;;;5094833;28;20437;-68
2021/05/01 03:53:10;;;;;;;19.52;13.55;;;;;;;;;;5094150;28;20109;-69
2021/05/01 03:55:36;;;;;;;20.17;13.00;;;;;;;;;;5112187;28;20027;-69
2021/05/01 03:58:02;;;;;;;19.70;15.10;;;;;;;;;;5109693;28;20103;-70
2021/05/01 04:00:29;;;;;;;20.38;13.43;;;;;;;;;;5109862;28;20035;-70
2021/05/01 04:02:55;;;;;;;25.17;15.10;;;;;;;;;;5099959;28;20042;-70
2021/05/01 04:05:21;;;;;;;16.58;12.77;;;;;;;;;;5093804;28;20020;-69
2021/05/01 04:07:48;;;;;;;17.63;13.07;;;;;;;;;;5102426;28;20054;-69
2021/05/01 04:10:14;;;;;;;17.08;13.45;;;;;;;;;;5075416;28;20028;-71
2021/05/01 04:12:40;;;;;;;18.42;12.15;;;;;;;;;;5109051;28;20048;-69
2021/05/01 04:15:07;;;;;;;17.42;12.02;;;;;;;;;;5113983;28;20030;-69
2021/05/01 04:17:33;;;;;;;17.92;12.65;;;;;;;;;;5099046;28;20497;-70
2021/05/01 04:19:59;;;;;;;17.33;12.75;;;;;;;;;;5093498;28;20107;-69
2021/05/01 04:22:25;;;;;;;17.13;12.95;;;;;;;;;;5105585;28;20390;-70
2021/05/01 04:24:51;;;;;;;18.98;12.43;;;;;;;;;;5113865;28;20020;-70
2021/05/01 04:27:18;;;;;;;17.85;13.23;;;;;;;;;;5102529;28;20025;-70
2021/05/01 04:29:44;;;;;;;19.67;13.50;;;;;;;;;;5093321;28;20020;-71
2021/05/01 04:32:10;;;;;;;20.63;13.32;;;;;;;;;;5110707;28;20027;-69
2021/05/01 04:34:36;;;;;;;22.10;13.75;;;;;;;;;;5113653;28;20477;-69
2021/05/01 04:37:03;;;;;;;17.65;12.63;;;;;;;;;;5097279;28;20085;-69
2021/05/01 04:39:29;;;;;;;22.10;13.52;;;;;;;;;;5093201;28;20105;-69
2021/05/01 04:41:55;;;;;;;19.10;12.98;;;;;;;;;;5094046;28;20058;-70
2021/05/01 04:44:22;;;;;;;17.45;14.32;;;;;;;;;;5094868;28;20043;-69
2021/05/01 04:46:52;;;;;;;18.80;14.05;;;;;;;;;;5107132;28;20022;-70
2021/05/01 04:49:18;;;;;;;22.80;13.75;;;;;;;;;;5113477;28;20028;-69
2021/05/01 04:51:44;;;;;;;17.80;12.82;;;;;;;;;;5100316;28;20031;-67
2021/05/01 04:54:10;;;;;;;21.02;14.00;;;;;;;;;;5092859;28;20114;-68
2021/05/01 04:56:37;;;;;;;20.35;13.20;;;;;;;;;;5104640;28;20035;-69
2021/05/01 04:59:06;;;;;;;18.70;13.00;;;;;;;;;;5113852;28;20039;-71
2021/05/01 05:01:35;;;;;;;21.90;13.65;;;;;;;;;;5102116;28;20085;-68
2021/05/01 05:04:02;;;;;;;17.10;13.27;;;;;;;;;;5092929;28;20020;-70
2021/05/01 05:06:28;;;;;;;18.52;13.77;;;;;;;;;;5111165;28;20094;-71
2021/05/01 05:08:54;;;;;;;17.52;13.32;;;;;;;;;;5113214;28;20032;-70
2021/05/01 05:11:20;;;;;;;20.30;13.90;;;;;;;;;;5112668;28;20481;-68
2021/05/01 05:13:46;;;;;;;19.98;14.98;;;;;;;;;;5112907;28;20058;-68
2021/05/01 05:16:13;;;;;;;17.05;12.52;;;;;;;;;;5096945;28;20029;-69
2021/05/01 05:18:39;;;;;;;16.83;12.95;;;;;;;;;;5092647;28;20426;-69
2021/05/01 05:21:05;;;;;;;17.38;12.70;;;;;;;;;;5106715;28;20432;-69
2021/05/01 05:23:31;;;;;;;19.67;12.50;;;;;;;;;;5112828;28;20470;-69
2021/05/01 05:25:57;;;;;;;22.83;15.13;;;;;;;;;;5099997;28;20509;-69
2021/05/01 05:28:23;;;;;;;17.23;12.13;;;;;;;;;;5092785;28;20495;-70
2021/05/01 05:30:50;;;;;;;21.45;15.02;;;;;;;;;;5093504;28;20426;-69
2021/05/01 05:33:16;;;;;;;20.30;12.63;;;;;;;;;;5092719;28;20028;-70
2021/05/01 05:35:42;;;;;;;19.33;13.70;;;;;;;;;;5102454;28;20072;-67
2021/05/01 05:38:08;;;;;;;16.83;12.85;;;;;;;;;;5112859;28;20466;-70
2021/05/01 05:40:34;;;;;;;21.38;13.35;;;;;;;;;;5104800;28;20064;-69
2021/05/01 05:43:01;;;;;;;18.90;13.18;;;;;;;;;;5086175;28;20027;-69
2021/05/01 05:45:30;;;;;;;19.52;13.93;;;;;;;;;;5106005;28;20020;-70
2021/05/01 05:47:56;;;;;;;18.27;13.88;;;;;;;;;;5092290;28;20028;-70
2021/05/01 05:50:23;;;;;;;17.05;12.82;;;;;;;;;;5099821;28;20129;-69
2021/05/01 05:52:49;;;;;;;16.30;12.48;;;;;;;;;;5116797;28;20069;-69
2021/05/01 05:55:15;;;;;;;19.05;11.75;;;;;;;;;;5112793;28;20039;-70
2021/05/01 05:57:47;;;;;;;17.30;12.43;;;;;;;;;;5096054;28;20063;-70
2021/05/01 06:00:13;;;;;;;16.05;12.02;;;;;;;;;;5081286;28;20377;-69
2021/05/01 06:02:42;;;;;;;17.90;12.60;;;;;;;;;;5116587;28;20020;-69
2021/05/01 06:05:11;;;;;;;14.50;12.23;;;;;;;;;;5113780;28;20035;-70
2021/05/01 06:07:42;;;;;;;16.13;12.13;;;;;;;;;;5095992;28;20406;-70
2021/05/01 06:10:09;;;;;;;17.50;12.07;;;;;;;;;;5098287;28;20031;-70
2021/05/01 06:12:35;;;;;;;19.17;13.07;;;;;;;;;;5116241;28;20039;-70
2021/05/01 06:15:03;;;;;;;17.85;13.23;;;;;;;;;;5101950;28;20114;-70
2021/05/01 06:17:29;;;;;;;16.13;12.45;;;;;;;;;;5096054;28;20020;-71
2021/05/01 06:19:57;;;;;;;15.73;10.82;;;;;;;;;;5089797;28;20394;-69
2021/05/01 06:22:24;;;;;;;15.63;11.88;;;;;;;;;;5116209;28;20351;-70
2021/05/01 06:24:50;;;;;;;15.25;12.13;;;;;;;;;;5112755;28;20104;-70
2021/05/01 06:27:17;;;;;;;18.23;10.55;;;;;;;;;;5116046;28;20027;-70
2021/05/01 06:29:44;;;;;;;15.98;10.98;;;;;;;;;;5105802;28;20387;-70
2021/05/01 06:32:18;;;;;;;13.75;11.30;;;;;;;;;;5095689;28;20104;-71
2021/05/01 06:34:49;;;;;;;14.10;10.40;;;;;;;;;;5105559;28;20140;-70
2021/05/01 06:37:16;;;;;;;17.15;11.50;;;;;;;;;;5116499;28;20494;-69
2021/05/01 06:39:47;;;;;;;19.35;11.70;;;;;;;;;;5107535;28;20031;-70
2021/05/01 06:42:39;;;;;;;15.05;11.15;;;;;;;;;;5096998;28;20016;-70
2021/05/01 06:45:13;;;;;;;14.73;12.77;;;;;;;;;;5103286;28;20036;-70
2021/05/01 06:47:52;;;;;;;16.25;11.40;;;;;;;;;;5108369;28;20382;-71
2021/05/01 06:50:21;;;;;;;20.65;11.68;;;;;;;;;;5095710;28;20024;-69
2021/05/01 06:52:47;;;;;;;23.33;12.15;;;;;;;;;;5103707;28;20423;-70
2021/05/01 06:55:14;;;;;;;30.13;13.93;;;;;;;;;;5116063;28;20054;-70
2021/05/01 06:57:45;;;;;;;20.17;12.02;;;;;;;;;;5108989;28;20359;-69
2021/05/01 07:00:11;;;;;;;15.80;11.13;;;;;;;;;;5096720;28;20016;-70
2021/05/01 07:02:41;;;;;;;16.15;12.38;;;;;;;;;;5101478;28;20024;-69
2021/05/01 07:05:11;;;;;;;14.95;10.60;;;;;;;;;;5099125;28;20064;-70
2021/05/01 07:07:37;;;;;;;13.43;9.73;;;;;;;;;;5110901;28;20370;-70
2021/05/01 07:10:07;;;;;;;13.70;10.20;;;;;;;;;;5095257;28;20020;-70
2021/05/01 07:12:34;;;;;;;13.27;9.95;;;;;;;;;;5102301;28;20090;-70
2021/05/01 07:15:07;;;;;;;11.65;9.65;;;;;;;;;;5108779;28;20019;-70
2021/05/01 07:17:34;;;;;;;13.65;10.35;;;;;;;;;;5103300;28;20065;-70
2021/05/01 07:20:00;;;;;;;15.18;9.90;;;;;;;;;;5102040;28;20471;-71
2021/05/01 07:22:26;;;;;;;13.35;10.68;;;;;;;;;;5099930;28;20024;-67
2021/05/01 07:24:53;;;;;;;12.68;9.95;;;;;;;;;;5094893;28;20088;-70
2021/05/01 07:27:19;;;;;;;13.85;10.13;;;;;;;;;;5115349;28;20481;-70
2021/05/01 07:29:46;;;;;;;12.98;9.57;;;;;;;;;;5103002;28;20115;-71
2021/05/01 07:32:15;;;;;;;11.25;9.60;;;;;;;;;;5104218;28;20031;-72
2021/05/01 07:34:50;;;;;;;12.90;9.55;;;;;;;;;;5115804;28;20047;-72
2021/05/01 07:37:18;;;;;;;11.20;9.20;;;;;;;;;;5097263;28;20028;-71
2021/05/01 07:39:47;;;;;;;12.07;8.43;;;;;;;;;;5095082;28;20479;-71
2021/05/01 07:42:13;;;;;;;12.32;8.68;;;;;;;;;;5094152;28;20035;-70
2021/05/01 07:44:40;;;;;;;10.82;9.55;;;;;;;;;;5108183;28;20030;-71
2021/05/01 07:47:06;;;;;;;10.05;8.20;;;;;;;;;;5101232;28;20538;-70
2021/05/01 07:49:32;;;;;;;13.55;9.82;;;;;;;;;;5093653;28;20073;-71
2021/05/01 07:52:00;;;;;;;15.18;9.48;;;;;;;;;;5113006;28;20066;-70
2021/05/01 07:54:26;;;;;;;13.45;8.80;;;;;;;;;;5113234;28;20032;-67
2021/05/01 07:56:53;;;;;;;12.82;9.35;;;;;;;;;;5095005;28;20024;-69
2021/05/01 07:59:19;;;;;;;11.27;9.27;;;;;;;;;;5097304;28;20027;-68
2021/05/01 08:01:45;;;;;;;10.45;9.05;;;;;;;;;;5103231;28;20093;-69
2021/05/01 08:04:11;;;;;;;11.50;9.50;;;;;;;;;;5093646;28;20498;-70
2021/05/01 08:06:38;;;;;;;13.57;9.10;;;;;;;;;;5075423;28;20032;-70
2021/05/01 08:09:05;;;;;;;10.52;9.13;;;;;;;;;;5094586;28;20102;-69
2021/05/01 08:11:31;;;;;;;13.55;8.32;;;;;;;;;;5102881;28;20059;-70
2021/05/01 08:13:57;;;;;;;11.65;8.57;;;;;;;;;;5101488;28;20039;-71
2021/05/01 08:16:23;;;;;;;14.15;9.32;;;;;;;;;;5104299;28;20035;-70
2021/05/01 08:18:51;;;;;;;12.27;9.90;;;;;;;;;;5101045;28;20023;-69
2021/05/01 08:21:17;;;;;;;12.35;8.15;;;;;;;;;;5093434;28;20020;-71
2021/05/01 08:23:43;;;;;;;11.90;7.95;;;;;;;;;;5112807;28;20424;-70
2021/05/01 08:26:09;;;;;;;9.45;7.45;;;;;;;;;;5098344;28;20020;-71
2021/05/01 08:28:35;;;;;;;11.13;6.80;;;;;;;;;;5102180;28;20053;-70
2021/05/01 08:31:01;;;;;;;11.82;7.43;;;;;;;;;;5103672;28;20086;-70
2021/05/01 08:33:28;;;;;;;10.30;7.45;;;;;;;;;;5105139;28;20032;-70
2021/05/01 08:35:55;;;;;;;12.90;7.28;;;;;;;;;;5113401;28;20023;-71
2021/05/01 08:38:43;;;;;;;8.85;6.90;;;;;;;;;;5102205;28;20032;-68
2021/05/01 08:44:11;;;;;;;6.85;3.85;;;;;;;;;;5093086;28;20493;-70
2021/05/01 08:46:38;;;;;;;7.65;4.40;;;;;;;;;;5075495;28;20129;-71
2021/05/01 08:49:05;;;;;;;7.88;4.63;;;;;;;;;;5109382;28;20035;-69
2021/05/01 08:51:31;;;;;;;9.32;4.50;;;;;;;;;;5107251;28;20114;-71
2021/05/01 08:53:57;;;;;;;5.63;4.63;;;;;;;;;;5074846;28;20482;-71
2021/05/01 08:56:23;;;;;;;5.72;4.25;;;;;;;;;;5092957;28;20032;-70
2021/05/01 08:58:49;;;;;;;5.00;3.90;;;;;;;;;;5110599;28;20493;-70
2021/05/01 09:01:16;;;;;;;5.90;4.07;;;;;;;;;;5104844;28;20428;-71
2021/05/01 09:03:43;;;;;;;6.43;4.53;;;;;;;;;;5087431;28;20016;-71
2021/05/01 09:06:10;;;;;;;6.60;4.28;;;;;;;;;;5113134;28;20023;-70
2021/05/01 09:08:42;;;;;;;6.30;4.00;;;;;;;;;;5078710;28;20024;-69
2021/05/01 09:11:09;;;;;;;5.25;3.72;;;;;;;;;;5092443;28;20035;-71
2021/05/01 09:13:46;;;;;;;5.75;4.15;;;;;;;;;;5107876;28;20127;-72
2021/05/01 09:16:15;;;;;;;5.45;4.30;;;;;;;;;;5109567;28;20107;-71
2021/05/01 09:18:44;;;;;;;5.68;4.32;;;;;;;;;;5100311;28;20032;-71
2021/05/01 09:21:14;;;;;;;7.82;4.15;;;;;;;;;;5109446;28;20031;-66
2021/05/01 09:23:41;;;;;;;5.90;4.18;;;;;;;;;;5094642;28;20398;-72
2021/05/01 09:26:07;;;;;;;5.88;3.80;;;;;;;;;;5119945;28;20047;-71
2021/05/01 09:28:49;;;;;;;5.68;3.95;;;;;;;;;;5102354;28;20603;-70
2021/05/01 09:31:16;;;;;;;8.18;4.53;;;;;;;;;;5119517;28;20036;-69
2021/05/01 09:33:43;;;;;;;6.03;4.07;;;;;;;;;;5099129;28;20036;-70
2021/05/01 09:36:16;;;;;;;4.85;4.30;;;;;;;;;;5098965;28;20030;-70
2021/05/01 09:38:48;;;;;;;8.90;4.22;;;;;;;;;;5098880;28;20082;-70
2021/05/01 09:41:25;;;;;;;6.72;4.13;;;;;;;;;;5099157;28;20028;-69
2021/05/01 09:43:58;;;;;;;4.82;3.95;;;;;;;;;;5099416;28;20490;-72
2021/05/01 09:46:24;;;;;;;5.00;4.25;;;;;;;;;;5082323;28;20074;-70
2021/05/01 09:49:09;;;;;;;8.95;4.32;;;;;;;;;;5119718;28;20030;-71
2021/05/01 09:51:54;;;;;;;3.97;3.58;;;;;;;;;;5109446;28;20028;-71
2021/05/01 09:54:27;;;;;;;9.63;4.53;;;;;;;;;;5119406;28;20020;-71
2021/05/01 09:56:55;;;;;;;8.95;5.15;;;;;;;;;;5116190;28;20625;-71
2021/05/01 09:59:21;;;;;;;7.10;4.47;;;;;;;;;;5099833;28;20099;-71
2021/05/01 10:01:58;;;;;;;7.97;4.10;;;;;;;;;;5100305;28;20042;-72
2021/05/01 10:04:25;;;;;;;6.05;4.05;;;;;;;;;;5108108;28;20027;-71
2021/05/01 10:07:01;;;;;;;8.20;4.68;;;;;;;;;;5116833;28;20024;-71
2021/05/01 10:09:29;;;;;;;5.63;4.20;;;;;;;;;;5102571;28;20028;-72
2021/05/01 10:12:12;;;;;;;4.38;3.97;;;;;;;;;;5100630;28;20537;-71
2021/05/01 10:14:43;;;;;;;6.88;3.75;;;;;;;;;;5119202;28;20108;-71
2021/05/01 10:17:11;;;;;;;5.63;4.35;;;;;;;;;;5116067;28;20024;-71
2021/05/01 10:19:45;;;;;;;5.13;4.03;;;;;;;;;;5109719;28;20043;-70
2021/05/01 10:22:31;;;;;;;7.32;3.70;;;;;;;;;;5100294;28;20501;-71
2021/05/01 10:24:57;;;;;;;;;;;;;;;;;;5114382;28;20027;-71
2021/05/01 10:27:23;;;;;;;5.32;3.78;;;;;;;;;;5119041;28;20364;-71
2021/05/01 10:30:13;;;;;;;4.63;3.58;;;;;;;;;;5088495;28;20482;-71
2021/05/01 10:32:44;;;;;;;5.28;4.00;;;;;;;;;;5101167;28;20028;-71
2021/05/01 10:35:11;;;;;;;5.25;3.78;;;;;;;;;;5098528;28;20391;-71
2021/05/01 10:37:40;;;;;;;7.60;3.53;;;;;;;;;;5094764;28;20382;-71
2021/05/01 10:40:07;;;;;;;5.43;3.42;;;;;;;;;;5110760;28;20036;-71
2021/05/01 10:42:33;;;;;;;7.05;4.40;;;;;;;;;;5097604;28;20427;-71
2021/05/01 10:45:00;;;;;;;7.35;4.10;;;;;;;;;;5113950;28;20028;-72
2021/05/01 10:47:26;;;;;;;4.10;3.30;;;;;;;;;;5114405;28;20561;-71
2021/05/01 10:49:57;;;;;;;5.72;4.45;;;;;;;;;;5103417;28;20413;-71
2021/05/01 10:52:24;;;;;;;8.00;4.57;;;;;;;;;;5095959;28;20123;-71
2021/05/01 10:55:04;;;;;;;4.30;3.40;;;;;;;;;;5109235;28;20039;-68
2021/05/01 10:57:31;;;;;;;5.15;3.47;;;;;;;;;;5117303;28;20139;-72
2021/05/01 11:00:01;;;;;;;6.35;3.80;;;;;;;;;;5104106;28;20099;-72
2021/05/01 11:02:48;;;;;;;6.15;3.75;;;;;;;;;;5097109;28;20016;-71
2021/05/01 11:05:14;;;;;;;5.55;4.00;;;;;;;;;;5113384;28;20028;-71
2021/05/01 11:07:40;;;;;;;6.32;3.58;;;;;;;;;;5106160;28;20031;-71
2021/05/01 11:10:07;;;;;;;3.70;3.33;;;;;;;;;;5109366;28;20070;-67
2021/05/01 11:12:37;;;;;;;4.50;3.00;;;;;;;;;;5096544;28;20441;-72
2021/05/01 11:15:06;;;;;;;6.55;3.20;;;;;;;;;;5097697;28;20039;-73
2021/05/01 11:17:32;;;;;;;3.95;3.17;;;;;;;;;;5116385;28;20031;-70
2021/05/01 11:20:00;;;;;;;4.82;3.20;;;;;;;;;;5114358;28;20561;-71
2021/05/01 11:22:32;;;;;;;5.78;3.28;;;;;;;;;;5096456;28;20082;-73
2021/05/01 11:24:58;;;;;;;7.25;4.00;;;;;;;;;;5097391;28;20030;-71
2021/05/01 11:27:25;;;;;;;6.55;3.08;;;;;;;;;;5116533;28;20058;-72
2021/05/01 11:29:51;;;;;;;8.13;3.13;;;;;;;;;;5116565;28;20024;-73
2021/05/01 11:32:18;;;;;;;5.15;3.15;;;;;;;;;;5123511;28;20039;-70
2021/05/01 11:34:47;;;;;;;6.18;3.35;;;;;;;;;;5121381;28;20035;-70
2021/05/01 11:37:13;;;;;;;6.43;3.50;;;;;;;;;;5105259;28;20028;-66
2021/05/01 11:39:40;;;;;;;4.43;3.47;;;;;;;;;;5105204;28;20083;-67
2021/05/01 11:42:07;;;;;;;5.28;3.83;;;;;;;;;;5125445;28;20034;-68
2021/05/01 11:44:33;;;;;;;6.90;3.60;;;;;;;;;;5117765;28;20024;-69
2021/05/01 11:47:02;;;;;;;4.93;3.78;;;;;;;;;;5120993;28;20478;-72
2021/05/01 11:49:29;;;;;;;5.95;4.05;;;;;;;;;;5106373;28;20034;-72
2021/05/01 11:51:55;;;;;;;4.28;3.88;;;;;;;;;;5095667;28;20024;-72
2021/05/01 11:54:42;;;;;;;8.40;3.67;;;;;;;;;;5098644;28;20015;-72
2021/05/01 11:57:20;;;;;;;5.85;4.43;;;;;;;;;;5064458;28;20440;-71
2021/05/01 11:59:47;;;;;;;4.68;3.45;;;;;;;;;;5105350;28;20106;-71
2021/05/01 12:02:18;;;;;;;4.60;3.70;;;;;;;;;;5098890;28;20024;-72
2021/05/01 12:05:00;;;;;;;5.60;3.72;;;;;;;;;;5113770;28;20020;-68
2021/05/01 12:07:38;;;;;;;5.05;3.20;;;;;;;;;;5107412;28;20026;-70
2021/05/01 12:10:09;;;;;;;5.10;3.20;;;;;;;;;;5114420;28;20016;-67
2021/05/01 12:12:40;;;;;;;5.63;3.38;;;;;;;;;;5106285;28;20036;-66
2021/05/01 12:15:11;;;;;;;5.97;3.63;;;;;;;;;;5117455;28;20209;-66
2021/05/01 12:17:38;;;;;;;4.35;3.00;;;;;;;;;;5127127;28;20063;-67
2021/05/01 12:20:13;;;;;;;4.53;3.33;;;;;;;;;;5117114;28;20020;-66
2021/05/01 12:22:40;;;;;;;3.92;3.15;;;;;;;;;;5106530;28;20028;-65
2021/05/01 12:25:24;;;;;;;3.80;3.35;;;;;;;;;;5111064;28;20581;-68
2021/05/01 12:27:52;;;;;;;5.53;4.10;;;;;;;;;;5134550;28;20541;-69
2021/05/01 12:30:37;;;;;;;5.40;3.40;;;;;;;;;;5123189;28;20052;-66
2021/05/01 12:33:21;;;;;;;4.68;3.17;;;;;;;;;;5115957;28;20015;-66
2021/05/01 12:35:48;;;;;;;5.47;3.60;;;;;;;;;;5099464;28;20074;-71
2021/05/01 12:38:15;;;;;;;6.40;3.63;;;;;;;;;;5096356;28;20032;-71
2021/05/01 12:40:41;;;;;;;4.75;3.47;;;;;;;;;;5103791;28;20073;-72
2021/05/01 12:43:37;;;;;;;5.43;4.00;;;;;;;;;;5103151;28;20020;-71
2021/05/01 12:46:14;;;;;;;7.30;3.72;;;;;;;;;;5086475;28;20062;-68
2021/05/01 12:49:09;;;;;;;4.97;3.50;;;;;;;;;;5107139;28;20032;-73
2021/05/01 12:51:37;;;;;;;5.30;3.58;;;;;;;;;;5066102;28;20056;-69
2021/05/01 12:54:21;;;;;;;4.55;3.22;;;;;;;;;;5114938;28;20044;-71
2021/05/01 12:56:55;;;;;;;5.55;3.15;;;;;;;;;;5096593;28;20032;-72
2021/05/01 12:59:24;;;;;;;5.82;3.97;;;;;;;;;;5104764;28;20020;-71
2021/05/01 13:01:53;;;;;;;5.40;4.00;;;;;;;;;;5091920;28;20618;-72
2021/05/01 13:04:26;;;;;;;5.60;3.40;;;;;;;;;;5097506;28;20032;-72
2021/05/01 13:06:56;;;;;;;4.75;3.20;;;;;;;;;;5107003;28;20555;-72
2021/05/01 13:09:24;;;;;;;6.68;3.45;;;;;;;;;;5093283;28;20031;-72
2021/05/01 13:12:05;;;;;;;6.38;3.20;;;;;;;;;;5116126;28;20024;-73
2021/05/01 13:14:31;;;;;;;4.07;3.30;;;;;;;;;;5105968;28;20039;-70
2021/05/01 13:17:04;;;;;;;6.82;3.45;;;;;;;;;;5106669;28;20079;-67
2021/05/01 13:19:34;;;;;;;5.15;3.60;;;;;;;;;;5108506;28;20028;-68
2021/05/01 13:22:02;;;;;;;5.30;3.60;;;;;;;;;;5120550;28;20023;-72
2021/05/01 13:24:39;;;;;;;5.22;3.28;;;;;;;;;;5116008;28;20103;-66
2021/05/01 13:27:10;;;;;;;5.50;3.20;;;;;;;;;;5113601;28;20020;-66
2021/05/01 13:29:54;;;;;;;4.65;3.17;;;;;;;;;;5113103;28;20051;-66
2021/05/01 13:32:22;;;;;;;7.35;3.60;;;;;;;;;;5107718;28;20395;-68
2021/05/01 13:34:57;;;;;;;4.40;3.17;;;;;;;;;;5109649;28;20024;-73
2021/05/01 13:37:23;;;;;;;;;;;;;;;;;;5100709;28;20487;-69
2021/05/01 13:39:49;;;;;;;3.55;2.97;;;;;;;;;;5113655;28;19933;-71
2021/05/01 13:42:16;;;;;;;7.38;4.20;;;;;;;;;;5101030;28;20028;-65
2021/05/01 13:44:52;;;;;;;3.05;2.65;;;;;;;;;;5102963;28;20076;-68
2021/05/01 13:47:26;;;;;;;4.60;2.65;;;;;;;;;;5115543;28;20054;-67
2021/05/01 13:49:53;;;;;;;4.00;2.90;;;;;;;;;;5108331;28;20024;-70
2021/05/01 13:52:36;;;;;;;3.53;2.78;;;;;;;;;;5119871;28;20028;-71
2021/05/01 13:55:19;;;;;;;6.18;3.22;;;;;;;;;;5119051;28;20032;-65
2021/05/01 13:57:46;;;;;;;5.50;3.20;;;;;;;;;;5112391;28;20351;-68
2021/05/01 14:00:13;;;;;;;4.13;3.40;;;;;;;;;;5113362;28;20047;-65
2021/05/01 14:02:46;;;;;;;4.10;2.67;;;;;;;;;;5112306;28;20020;-65
2021/05/01 14:05:14;;;;;;;4.72;3.05;;;;;;;;;;5111768;28;20020;-67
2021/05/01 14:07:41;;;;;;;5.03;3.50;;;;;;;;;;5109988;28;20083;-64
2021/05/01 14:10:08;;;;;;;4.22;3.63;;;;;;;;;;5108871;28;20378;-69
2021/05/01 14:12:35;;;;;;;3.83;2.78;;;;;;;;;;5109487;28;20055;-67
2021/05/01 14:15:02;;;;;;;4.97;3.08;;;;;;;;;;5108763;28;20035;-69
2021/05/01 14:17:29;;;;;;;3.42;2.90;;;;;;;;;;5108621;28;20043;-66
2021/05/01 14:19:55;;;;;;;4.20;3.20;;;;;;;;;;5123768;28;20027;-66
2021/05/01 14:22:22;;;;;;;4.15;3.20;;;;;;;;;;5109802;28;20028;-68
2021/05/01 14:24:48;;;;;;;4.78;2.90;;;;;;;;;;5107701;28;20031;-68
2021/05/01 14:27:14;;;;;;;5.20;2.72;;;;;;;;;;5124014;28;20038;-66
2021/05/01 14:29:53;;;;;;;4.90;2.90;;;;;;;;;;5119184;28;20450;-68
2021/05/01 14:32:19;;;;;;;4.68;2.92;;;;;;;;;;5105091;28;20031;-66
2021/05/01 14:34:56;;;;;;;6.80;2.85;;;;;;;;;;5117050;28;20028;-72
2021/05/01 14:37:23;;;;;;;5.05;3.03;;;;;;;;;;5106022;28;20558;-71
2021/05/01 14:39:49;;;;;;;4.50;2.80;;;;;;;;;;5108568;28;20047;-69
2021/05/01 14:42:16;;;;;;;5.03;3.05;;;;;;;;;;5106234;28;20024;-70